Amunt
Inicio > meteoXarxa
Fes-te'n soci

METEOXARXA

Castelló de la Plana
Ubicació Benadressa
Comarca la Plana Alta
Altitud (msnm) 75
Posició geogràfica 39° 58' 58.08" N, 00° 6' 43.92" W
Model
Presa de dades
Font de les dades IVIA
Estadístiques. Resum
Data Temperatura (ºC) Humitat (%) Pressió (hPa) Vent (km/h) Precipit. (mm)
Mínima Mitjana Màxima Mínima Mitjana Màxima Mínima Mitjana Màxima Predom. Mitjana Ràfega màxima Total Dies de pluja
Mínima Mitjana Màxima Mínima Mitjana Màxima
Últimes dades diàries
27-03-2017 9,0     13,2     19,1 80,4 NW 3,9 14,2 2,0  
26-03-2017 6,4     12,0     18,0 79,6 N 3,8 14,4 0,0  
25-03-2017 3,8     11,7     19,7 65,6 W 3,9 21,9 0,0  
24-03-2017 6,3     9,6     15,2 73,7 NW 4,8 19,3 1,6  
23-03-2017 8,6     12,8     17,0 44,7 W 5,7 22,0 0,0  
22-03-2017 7,5     14,4     20,9 59,9 W 4,2 20,6 0,0  
21-03-2017 6,6     12,8     19,2 83,1 NW 2,9 12,4 0,2  
20-03-2017 6,2     13,0     20,5 81,0 NW 2,7 14,9 0,0  
19-03-2017 6,1     13,5     20,7 71,9 W 2,7 12,3 0,0  
18-03-2017 4,3     12,5     22,1 63,0 W 3,7 12,5 0,2  
17-03-2017 5,7     11,8     20,1 66,6 W 3,8 14,7 0,0  
16-03-2017 6,5     12,0     19,2 75,0 W 3,6 13,4 0,0  
15-03-2017 8,0     13,2     19,2 70,8 NW 4,5 19,3 0,0  
14-03-2017 9,4     14,3     19,9 68,1 NE 4,5 19,0 0,0  
13-03-2017 7,9     11,5     14,8 77,8 N 9,6 26,4 13,9  
12-03-2017 8,8     14,3     21,9 78,4 W 4,6 26,8 13,7  
11-03-2017 7,1     13,6     20,5 80,5 W 2,5 12,3 0,0  
10-03-2017 9,9     16,9     23,3 59,3 NW 3,9 12,5 0,0  
09-03-2017 8,4     17,3     26,4 59,6 W 4,7 14,8 0,0  
08-03-2017 9,9     14,9     21,8 69,9 SW 2,7 12,4 0,0  
07-03-2017 7,0     15,8     24,8 57,6 W 3,1 14,5 0,0  
06-03-2017 10,5     17,0     26,1 57,4 W 5,5 23,5 0,0  
05-03-2017 4,8     13,3     20,1 60,5 NW 4,0 14,9 0,0  
04-03-2017 4,7     10,1     16,2 57,5 W 5,2 29,4 0,0  
03-03-2017 6,6     10,8     14,9 84,1 W 4,3 27,9 4,6  
02-03-2017 5,9     12,1     20,0 79,2 NW 3,2 14,0 0,2  
01-03-2017 5,8     11,7     18,6 76,9 NW 3,0 11,2 0,0  
28-02-2017 9,5     14,4     19,8 53,8 W 5,9 24,8 0,0  
27-02-2017 5,2     10,8     17,0 85,9 NW 3,0 12,7 0,2  
26-02-2017 6,2     11,2     17,9 85,1 W 2,5 11,8 0,0  
25-02-2017 4,6     10,2     15,8 78,2 NW 3,6 12,3 0,0  
24-02-2017 7,2     11,6     15,7 91,3 W 2,3 10,0 5,4  
Dades del mes en curs (actualitzades fins l'últim dia disponible)
03/2017 3,8 7,1 10,5 13,2 14,8 20,0 26,4 69,7   4,1 29,4 36,4  
Últimes dades mensuals
02/2017 3,9 6,8 11,7 17,6 23,2 23,1 73,0 100,0 O 4,6 46,4 18,3
01/2017 -0,8 4,0 8,9 14,7 19,0 16,7 70,9 100,0 NO 5,2 34,4 185,5
12/2016 1,2 7,4 14,2 11,0 11,4 16,7 19,6 55,7 82,0 91,7 4,6 27,3 91,3 14
11/2016 3,3 8,4 14,9 13,1 12,7 18,9 24,8 42,5 75,2 96,1 4,0 28,4 110,6 14
10/2016 9,8 14,8 17,5 18,8 19,6 24,2 27,5 70,4 80,6 92,8 3,0 20,4 27,5 13
09/2016 12,8 17,3 22,5 28,9 35,0 21,4 70,6 97,2 O 3,5 37,1 46,4
08/2016 15,7 19,3 24,8 30,6 34,3 23,9 70,2 95,3 SO 3,2 20,1 9,9
07/2016 15,8 19,2 25,1 30,9 33,5 27,3 64,5 94,9 SE 3,4 22,7 1,2
06/2016 12,4 16,2 20,8 22,4 24,4 28,4 33,2 36,4 61,5 75,5 3,6 27,5 1,0 2
05/2016 4,6 11,7 17,5 23,2 28,9 16,3 69,1 99,1 O 3,9 28,9 40,2
04/2016 5,2 9,3 15,0 21,2 28,4 17,1 68,5 99,3 NO 4,3 26,5 32,4
03/2016 1,2 6,2 12,2 18,7 25,7 17,6 63,2 99,1 NO 4,5 35,1 26,7
02/2016 -0,3 6,0 11,9 18,6 24,9 17,4 59,1 97,1 O 5,2 36,4 3,6
Dades de l'any en curs (actualitzades fins l'últim dia disponible)
2017 -0,8 5,9 10,5 11,2 9,1 17,4 26,4 71,3   4,7 46,4 240,0  
Últimes dades anuals
2006 483,6
2007 691,0
2008 452,0
2009 -1,9 14,3 22,4 19,5 6,6 25,3 40,1 34,0 68,3 99,0 3,3 39,0 549,0 47
2010 -3,6 10,4 23,2 15,8 5,9 21,8 37,7 35,0 71,0 99,0 3,6 105,0 388,0 98
2011 493,8
2012 304,0
2014 -1,0 11,6 16,9 23,0 33,7 13,2 67,2 96,6 NO 3,8 47,0 396,9
2015 -0,3 12,6 17,4 22,9 34,4 11,1 68,6 98,5 O 4,1 44,2 513,7